Time;durP1;ratioP1;P1;durP2;ratioP2;P2;SDS_P1;SDS_P2;PMS_P1;PMS_P2;Temp;Humidity;BMP_temperature;BMP_pressure;BME280_temperature;BME280_humidity;BME280_pressure;Samples;Min_cycle;Max_cycle;Signal;HPM_P1;HPM_P2
2023/02/01 00:01:41;;;;;;;;;;;5.90;99.90;;;;;;5007035;28;19921;-74
2023/02/01 00:04:06;;;;;;;;;;;5.90;99.90;;;;;;5007753;28;19921;-74
2023/02/01 00:06:32;;;;;;;;;;;5.90;99.90;;;;;;5008480;28;19922;-75
2023/02/01 00:08:57;;;;;;;;;;;5.90;99.90;;;;;;5016525;28;19925;-72
2023/02/01 00:11:23;;;;;;;;;;;5.90;99.90;;;;;;5017087;28;19972;-72
2023/02/01 00:13:49;;;;;;;;;;;5.90;99.90;;;;;;5023442;28;19917;-80
2023/02/01 00:16:17;;;;;;;;;;;5.90;99.90;;;;;;5015325;28;19914;-73
2023/02/01 00:18:43;;;;;;;;;;;6.00;99.90;;;;;;5019785;28;19993;-75
2023/02/01 00:21:10;;;;;;;;;;;5.90;99.90;;;;;;5020566;28;20256;-75
2023/02/01 00:23:36;;;;;;;;;;;5.90;99.90;;;;;;5009683;28;20004;-77
2023/02/01 00:26:03;;;;;;;;;;;5.90;99.90;;;;;;5009391;28;19920;-76
2023/02/01 00:28:28;;;;;;;;;;;5.90;99.90;;;;;;5010840;28;19914;-78
2023/02/01 00:30:58;;;;;;;;;;;5.80;99.90;;;;;;5016275;28;19967;-75
2023/02/01 00:33:23;;;;;;;;;;;5.80;99.90;;;;;;5016788;28;19909;-74
2023/02/01 00:35:49;;;;;;;;;;;5.70;99.90;;;;;;5020765;28;19921;-79
2023/02/01 00:38:14;;;;;;;;;;;5.70;99.90;;;;;;5005452;28;19921;-79
2023/02/01 00:40:40;;;;;;;;;;;5.70;99.90;;;;;;5015170;28;19928;-77
2023/02/01 00:43:05;;;;;;;;;;;5.70;99.90;;;;;;5013231;28;19909;-78
2023/02/01 00:45:31;;;;;;;;;;;5.80;99.90;;;;;;5001407;28;20397;-77
2023/02/01 00:47:56;;;;;;;;;;;5.80;99.90;;;;;;5003920;28;19913;-75
2023/02/01 00:50:21;;;;;;;;;;;5.80;99.90;;;;;;5011481;28;20017;-77
2023/02/01 00:52:47;;;;;;;;;;;5.80;99.90;;;;;;5001619;28;19910;-74
2023/02/01 00:55:13;;;;;;;;;;;5.80;99.90;;;;;;5016717;28;19914;-73
2023/02/01 00:57:38;;;;;;;;;;;5.80;99.90;;;;;;5004553;28;19913;-77
2023/02/01 01:00:04;;;;;;;;;;;5.70;99.90;;;;;;5009165;28;19921;-76
2023/02/01 01:02:29;;;;;;;;;;;5.70;99.90;;;;;;5012277;28;20335;-75
2023/02/01 01:04:55;;;;;;;;;;;5.70;99.90;;;;;;5008516;28;20306;-74
2023/02/01 01:07:21;;;;;;;;;;;5.70;99.90;;;;;;5020790;28;19917;-70
2023/02/01 01:09:46;;;;;;;;;;;5.70;99.90;;;;;;5029845;28;19981;-72
2023/02/01 01:12:12;;;;;;;;;;;5.70;99.90;;;;;;5024596;28;19910;-71
2023/02/01 01:14:37;;;;;;;;;;;5.70;99.90;;;;;;5014497;28;19981;-71
2023/02/01 01:17:03;;;;;;;;;;;5.70;99.90;;;;;;5017491;28;19916;-70
2023/02/01 01:19:28;;;;;;;;;;;5.70;99.90;;;;;;5014467;28;19920;-71
2023/02/01 01:21:54;;;;;;;;;;;5.70;99.90;;;;;;5010367;28;19917;-70
2023/02/01 01:24:19;;;;;;;;;;;5.80;99.90;;;;;;5011647;28;19992;-71
2023/02/01 01:26:45;;;;;;;;;;;5.80;99.90;;;;;;5014909;28;19937;-72
2023/02/01 01:29:11;;;;;;;;;;;5.90;99.90;;;;;;5011212;28;20291;-72
2023/02/01 01:31:36;;;;;;;;;;;5.90;99.90;;;;;;5000409;28;20398;-71
2023/02/01 01:34:02;;;;;;;;;;;6.00;99.90;;;;;;5005876;28;20402;-71
2023/02/01 01:36:28;;;;;;;;;;;6.10;99.90;;;;;;5013159;28;20310;-71
2023/02/01 01:38:54;;;;;;;;;;;6.10;99.90;;;;;;5030807;28;19924;-71
2023/02/01 01:41:21;;;;;;;;;;;6.10;99.90;;;;;;5013933;28;19918;-72
2023/02/01 01:43:55;;;;;;;;;;;6.20;99.90;;;;;;5007085;28;20051;-70
2023/02/01 01:46:23;;;;;;;;;;;6.30;99.90;;;;;;5009254;28;20016;-70
2023/02/01 01:49:01;;;;;;;;;;;6.30;99.90;;;;;;5006632;28;20701;-73
2023/02/01 01:51:27;;;;;;;;;;;6.30;99.90;;;;;;5009994;28;19914;-73
2023/02/01 01:53:56;;;;;;;;;;;6.40;99.90;;;;;;5006183;28;19926;-72
2023/02/01 01:56:21;;;;;;;;;;;6.40;99.90;;;;;;4999585;28;19924;-70
2023/02/01 01:58:47;;;;;;;;;;;6.40;99.90;;;;;;5006981;28;19913;-72
2023/02/01 02:01:13;;;;;;;;;;;6.50;99.90;;;;;;5008442;28;19936;-70
2023/02/01 02:03:42;;;;;;;;;;;6.50;99.90;;;;;;5003200;28;19929;-70
2023/02/01 02:06:20;;;;;;;;;;;6.50;99.90;;;;;;5009728;28;19983;-73
2023/02/01 02:08:45;;;;;;;;;;;6.40;99.90;;;;;;5017289;28;19953;-71
2023/02/01 02:11:15;;;;;;;;;;;6.40;99.90;;;;;;5014226;28;19948;-71
2023/02/01 02:13:41;;;;;;;;;;;6.40;99.90;;;;;;5001935;28;19914;-73
2023/02/01 02:16:43;;;;;;;;;;;6.40;99.90;;;;;;5002359;28;19960;-71
2023/02/01 02:19:17;;;;;;;;;;;6.50;99.90;;;;;;4935215;29;19961;-71
2023/02/01 02:21:42;;;;;;;;;;;6.50;99.90;;;;;;4995059;28;20441;-72
2023/02/01 02:24:23;;;;;;;;;;;6.50;99.90;;;;;;5017623;28;19913;-71
2023/02/01 02:27:22;;;;;;;;;;;6.50;99.90;;;;;;5017198;28;19936;-71
2023/02/01 02:30:05;;;;;;;;;;;6.50;99.90;;;;;;5017677;28;19915;-72
2023/02/01 02:32:43;;;;;;;;;;;6.50;99.90;;;;;;5001446;28;19945;-71
2023/02/01 02:35:27;;;;;;;;;;;6.60;99.90;;;;;;5004856;28;19913;-71
2023/02/01 02:37:58;;;;;;;;;;;6.50;99.90;;;;;;5002976;28;19913;-70
2023/02/01 02:40:38;;;;;;;;;;;6.60;99.90;;;;;;5012545;28;19944;-71
2023/02/01 02:49:34;;;;;;;;;;;6.60;99.90;;;;;;5055831;28;19942;-71
2023/02/01 02:54:48;;;;;;;;;;;6.60;99.90;;;;;;5023683;28;19950;-69
2023/02/01 03:05:39;;;;;;;;;;;6.60;99.90;;;;;;5012427;28;19916;-71
2023/02/01 03:08:05;;;;;;;;;;;6.60;99.90;;;;;;5007557;28;19922;-72
2023/02/01 03:10:36;;;;;;;;;;;6.60;99.90;;;;;;5015210;28;19924;-72
2023/02/01 03:13:11;;;;;;;;;;;6.50;99.90;;;;;;5016301;28;20008;-70
2023/02/01 03:16:03;;;;;;;;;;;6.50;99.90;;;;;;5003008;28;19920;-71
2023/02/01 03:18:47;;;;;;;;;;;6.50;99.90;;;;;;5000739;28;19964;-71
2023/02/01 03:21:16;;;;;;;;;;;6.50;99.90;;;;;;5008069;28;19936;-72
2023/02/01 03:23:42;;;;;;;;;;;6.60;99.90;;;;;;5008099;28;19992;-71
2023/02/01 03:26:10;;;;;;;;;;;6.70;99.90;;;;;;5002560;28;20385;-71
2023/02/01 03:28:36;;;;;;;;;;;6.60;99.90;;;;;;4996882;28;19916;-71
2023/02/01 03:31:02;;;;;;;;;;;6.70;99.90;;;;;;5009207;28;19943;-72
2023/02/01 03:33:29;;;;;;;;;;;6.60;99.90;;;;;;5001844;28;19918;-72
2023/02/01 03:36:01;;;;;;;;;;;6.60;99.90;;;;;;5013523;28;19920;-71
2023/02/01 03:38:50;;;;;;;;;;;6.60;99.90;;;;;;5008646;28;20082;-72
2023/02/01 03:41:22;;;;;;;;;;;6.60;99.90;;;;;;4998645;28;19913;-74
2023/02/01 03:43:56;;;;;;;;;;;6.60;99.90;;;;;;5014131;28;19960;-71
2023/02/01 03:46:32;;;;;;;;;;;6.60;99.90;;;;;;5017900;28;19909;-72
2023/02/01 03:48:59;;;;;;;;;;;6.60;99.90;;;;;;5004180;28;19917;-71
2023/02/01 03:51:24;;;;;;;;;;;6.60;99.90;;;;;;5030152;28;20605;-70
2023/02/01 03:53:51;;;;;;;;;;;6.50;99.90;;;;;;5007585;28;20011;-70
2023/02/01 03:56:18;;;;;;;;;;;6.50;99.90;;;;;;5019530;28;20006;-71
2023/02/01 03:58:58;;;;;;;;;;;6.50;99.90;;;;;;5009370;28;19967;-71
2023/02/01 04:01:23;;;;;;;;;;;6.50;99.90;;;;;;5000396;28;19910;-71
2023/02/01 04:03:51;;;;;;;;;;;6.50;99.90;;;;;;5002145;28;19920;-72
2023/02/01 04:06:16;;;;;;;;;;;6.50;99.90;;;;;;5000495;28;19917;-71
2023/02/01 04:08:42;;;;;;;;;;;6.50;99.90;;;;;;5008414;28;19921;-72
2023/02/01 04:11:07;;;;;;;;;;;6.50;99.90;;;;;;5003202;28;19924;-72
2023/02/01 04:13:33;;;;;;;;;;;6.40;99.90;;;;;;5006489;28;19909;-71
2023/02/01 04:15:58;;;;;;;;;;;6.50;99.90;;;;;;5002499;28;19910;-71
2023/02/01 04:18:24;;;;;;;;;;;6.50;99.90;;;;;;5004045;28;19925;-71
2023/02/01 04:20:49;;;;;;;;;;;6.40;99.90;;;;;;5007585;28;19917;-71
2023/02/01 04:23:15;;;;;;;;;;;6.40;99.90;;;;;;5003060;28;20004;-73
2023/02/01 04:25:41;;;;;;;;;;;6.40;99.90;;;;;;5008038;28;20433;-72
2023/02/01 04:28:06;;;;;;;;;;;6.40;99.90;;;;;;5008429;28;20037;-72
2023/02/01 04:30:32;;;;;;;;;;;6.40;99.90;;;;;;5009428;28;20497;-71
2023/02/01 04:32:58;;;;;;;;;;;6.30;99.90;;;;;;5008864;28;19921;-71
2023/02/01 04:35:23;;;;;;;;;;;6.40;99.90;;;;;;4994647;28;19936;-72
2023/02/01 04:37:49;;;;;;;;;;;6.40;99.90;;;;;;5014288;28;20691;-72
2023/02/01 04:40:14;;;;;;;;;;;6.40;99.90;;;;;;5011707;28;19921;-71
2023/02/01 04:42:40;;;;;;;;;;;6.40;99.90;;;;;;5007791;28;19920;-72
2023/02/01 04:45:05;;;;;;;;;;;6.40;99.90;;;;;;5020145;28;19909;-74
2023/02/01 04:47:31;;;;;;;;;;;6.50;99.90;;;;;;5005831;28;19913;-74
2023/02/01 04:49:56;;;;;;;;;;;6.50;99.90;;;;;;5009800;28;19983;-73
2023/02/01 04:52:22;;;;;;;;;;;6.50;99.90;;;;;;5017002;28;19917;-73
2023/02/01 04:54:47;;;;;;;;;;;6.50;99.90;;;;;;5013860;28;19925;-73
2023/02/01 04:57:14;;;;;;;;;;;6.50;99.90;;;;;;5007719;28;19919;-73
2023/02/01 04:59:40;;;;;;;;;;;6.60;99.90;;;;;;5038248;28;19955;-75
2023/02/01 05:02:05;;;;;;;;;;;6.60;99.90;;;;;;5027379;28;20350;-73
2023/02/01 05:04:31;;;;;;;;;;;6.60;99.90;;;;;;5028422;28;19971;-74
2023/02/01 05:06:56;;;;;;;;;;;6.60;99.90;;;;;;5019962;28;19917;-74
2023/02/01 05:09:22;;;;;;;;;;;6.70;99.90;;;;;;5029628;28;19937;-74
2023/02/01 05:14:31;;;;;;;;;;;6.70;99.90;;;;;;5019491;28;19956;-73
2023/02/01 05:16:57;;;;;;;;;;;6.80;99.90;;;;;;5009607;28;19917;-76
2023/02/01 05:19:23;;;;;;;;;;;6.80;99.90;;;;;;5021308;28;19920;-76
2023/02/01 05:21:48;;;;;;;;;;;6.80;99.90;;;;;;5015102;28;20371;-73
2023/02/01 05:24:19;;;;;;;;;;;6.80;99.90;;;;;;5002742;28;19924;-74
2023/02/01 05:26:45;;;;;;;;;;;6.90;99.90;;;;;;5009065;28;19956;-75
2023/02/01 05:29:10;;;;;;;;;;;6.80;99.90;;;;;;5010925;28;19917;-74
2023/02/01 05:31:36;;;;;;;;;;;6.80;99.90;;;;;;5011041;28;19914;-75
2023/02/01 05:34:02;;;;;;;;;;;6.80;99.90;;;;;;5018083;28;19913;-75
2023/02/01 05:36:27;;;;;;;;;;;6.80;99.90;;;;;;5005985;28;19910;-74
2023/02/01 05:38:53;;;;;;;;;;;6.80;99.90;;;;;;5001198;28;20414;-73
2023/02/01 05:41:18;;;;;;;;;;;6.80;99.90;;;;;;4994837;28;20360;-75
2023/02/01 05:43:44;;;;;;;;;;;6.80;99.90;;;;;;4992557;28;19922;-73
2023/02/01 05:46:12;;;;;;;;;;;6.80;99.90;;;;;;5005156;28;19927;-74
2023/02/01 05:48:38;;;;;;;;;;;6.80;99.90;;;;;;5010863;28;19920;-74
2023/02/01 05:51:04;;;;;;;;;;;6.80;99.90;;;;;;5007980;28;19917;-72
2023/02/01 05:53:29;;;;;;;;;;;6.70;99.90;;;;;;4999794;28;20206;-74
2023/02/01 05:55:55;;;;;;;;;;;6.80;99.90;;;;;;5007668;28;20397;-73
2023/02/01 05:58:20;;;;;;;;;;;6.70;99.90;;;;;;5005382;28;19924;-74
2023/02/01 06:00:46;;;;;;;;;;;6.70;99.90;;;;;;5021905;28;19913;-73
2023/02/01 06:03:11;;;;;;;;;;;6.70;99.90;;;;;;5021134;28;19960;-75
2023/02/01 06:05:37;;;;;;;;;;;6.70;99.90;;;;;;5018145;28;19893;-74
2023/02/01 06:08:02;;;;;;;;;;;6.60;99.90;;;;;;5011284;28;19925;-72
2023/02/01 06:10:28;;;;;;;;;;;6.60;99.90;;;;;;5003240;28;20338;-70
2023/02/01 06:12:54;;;;;;;;;;;6.60;99.90;;;;;;5012779;28;19918;-75
2023/02/01 06:15:20;;;;;;;;;;;6.60;99.90;;;;;;5028617;28;19914;-73
2023/02/01 06:17:46;;;;;;;;;;;6.60;99.90;;;;;;5022279;28;19914;-74
2023/02/01 06:20:12;;;;;;;;;;;6.60;99.90;;;;;;5030235;28;19989;-73
2023/02/01 06:22:38;;;;;;;;;;;6.60;99.90;;;;;;5027808;28;19999;-74
2023/02/01 06:25:05;;;;;;;;;;;6.50;99.90;;;;;;5021093;28;19910;-74
2023/02/01 06:27:31;;;;;;;;;;;6.50;99.90;;;;;;5009663;28;19909;-74
2023/02/01 06:29:56;;;;;;;;;;;6.50;99.90;;;;;;5011856;28;19916;-74
2023/02/01 06:32:23;;;;;;;;;;;6.50;99.90;;;;;;5005429;28;19918;-73
2023/02/01 06:34:49;;;;;;;;;;;6.50;99.90;;;;;;5006717;28;19921;-73
2023/02/01 06:37:14;;;;;;;;;;;6.50;99.90;;;;;;5018984;28;20347;-73
2023/02/01 06:39:40;;;;;;;;;;;6.50;99.90;;;;;;5004612;28;19913;-72
2023/02/01 06:42:05;;;;;;;;;;;6.50;99.90;;;;;;5004792;28;19932;-74
2023/02/01 06:44:31;;;;;;;;;;;6.50;99.90;;;;;;4998166;28;19914;-75
2023/02/01 06:46:56;;;;;;;;;;;6.50;99.90;;;;;;4996080;28;19917;-74
2023/02/01 06:49:22;;;;;;;;;;;6.50;99.90;;;;;;5023000;28;19942;-75
2023/02/01 06:51:47;;;;;;;;;;;6.50;99.90;;;;;;5011672;28;19918;-73
2023/02/01 06:54:13;;;;;;;;;;;6.50;99.90;;;;;;5007029;28;19909;-74
2023/02/01 06:56:38;;;;;;;;;;;6.50;99.90;;;;;;5011366;28;19957;-74
2023/02/01 06:59:04;;;;;;;;;;;6.50;99.90;;;;;;5015778;28;19921;-74
2023/02/01 07:01:30;;;;;;;;;;;6.60;99.90;;;;;;5019871;28;19916;-74
2023/02/01 07:03:55;;;;;;;;;;;6.50;99.90;;;;;;5012141;28;19970;-74
2023/02/01 07:06:21;;;;;;;;;;;6.50;99.90;;;;;;5008379;28;20482;-73
2023/02/01 07:08:46;;;;;;;;;;;6.50;99.90;;;;;;5009967;28;19920;-74
2023/02/01 07:11:13;;;;;;;;;;;6.50;99.90;;;;;;5017245;28;19913;-75
2023/02/01 07:13:38;;;;;;;;;;;6.50;99.90;;;;;;5009346;28;19909;-75
2023/02/01 07:16:05;;;;;;;;;;;6.50;99.90;;;;;;5010097;28;19920;-75
2023/02/01 07:18:33;;;;;;;;;;;6.50;99.90;;;;;;5004080;28;20456;-75
2023/02/01 07:20:58;;;;;;;;;;;6.50;99.90;;;;;;5011941;28;19913;-74
2023/02/01 07:23:24;;;;;;;;;;;6.50;99.90;;;;;;5011032;28;19909;-72
2023/02/01 07:25:53;;;;;;;;;;;6.50;99.90;;;;;;5011124;28;19913;-73
2023/02/01 07:28:18;;;;;;;;;;;6.50;99.90;;;;;;5023059;28;20282;-74
2023/02/01 07:30:50;;;;;;;;;;;6.50;99.90;;;;;;5019726;28;20617;-73
2023/02/01 07:33:17;;;;;;;;;;;6.50;99.90;;;;;;5018703;28;19909;-75
2023/02/01 07:35:42;;;;;;;;;;;6.50;99.90;;;;;;5013151;28;19913;-74
2023/02/01 07:38:08;;;;;;;;;;;6.50;99.90;;;;;;5013049;28;20422;-74
2023/02/01 07:40:33;;;;;;;;;;;6.50;99.90;;;;;;5027128;28;19916;-74
2023/02/01 07:42:59;;;;;;;;;;;6.60;99.90;;;;;;5011947;28;19910;-76
2023/02/01 07:45:25;;;;;;;;;;;6.50;99.90;;;;;;5014490;28;19921;-75
2023/02/01 07:47:51;;;;;;;;;;;6.50;99.90;;;;;;5017807;28;19916;-74
2023/02/01 07:50:17;;;;;;;;;;;6.50;99.90;;;;;;5024034;28;19917;-74
2023/02/01 07:52:42;;;;;;;;;;;6.50;99.90;;;;;;5017548;28;19936;-77
2023/02/01 07:55:08;;;;;;;;;;;6.50;99.90;;;;;;5006599;28;19914;-78
2023/02/01 07:57:33;;;;;;;;;;;6.60;99.90;;;;;;4998402;28;19916;-75
2023/02/01 08:02:43;;;;;;;;;;;6.60;99.90;;;;;;5015170;28;19921;-76
2023/02/01 08:05:08;;;;;;;;;;;6.60;99.90;;;;;;5026247;28;20476;-76
2023/02/01 08:07:34;;;;;;;;;;;6.60;99.90;;;;;;5013520;28;20589;-73
2023/02/01 08:09:59;;;;;;;;;;;6.60;99.90;;;;;;5019741;28;19917;-77
2023/02/01 08:12:26;;;;;;;;;;;6.70;99.90;;;;;;5011027;28;20293;-77
2023/02/01 08:14:53;;;;;;;;;;;6.70;99.90;;;;;;5015765;28;19909;-73
2023/02/01 08:17:19;;;;;;;;;;;6.70;99.90;;;;;;5014522;28;19910;-74
2023/02/01 08:19:44;;;;;;;;;;;6.70;99.90;;;;;;5018523;28;19913;-75
2023/02/01 08:22:10;;;;;;;;;;;6.70;99.90;;;;;;5023326;28;19917;-79
2023/02/01 08:24:37;;;;;;;;;;;6.70;99.90;;;;;;5014255;28;19964;-74
2023/02/01 08:27:03;;;;;;;;;;;6.70;99.90;;;;;;5016826;28;19913;-73
2023/02/01 08:29:28;;;;;;;;;;;6.70;99.90;;;;;;5016118;28;19917;-81
2023/02/01 08:31:54;;;;;;;;;;;6.70;99.90;;;;;;5004525;28;20521;-76
2023/02/01 08:34:20;;;;;;;;;;;6.80;99.90;;;;;;5006082;28;20402;-75
2023/02/01 08:36:45;;;;;;;;;;;6.80;99.90;;;;;;5015945;28;19920;-76
2023/02/01 08:39:11;;;;;;;;;;;6.80;99.90;;;;;;5021973;28;19996;-74
2023/02/01 08:41:37;;;;;;;;;;;6.90;99.90;;;;;;5009873;28;20024;-79
2023/02/01 08:44:02;;;;;;;;;;;6.90;99.90;;;;;;5017910;28;19910;-77
2023/02/01 08:46:28;;;;;;;;;;;7.00;99.90;;;;;;5021682;28;19913;-75
2023/02/01 08:48:53;;;;;;;;;;;7.00;99.90;;;;;;5009686;28;19913;-74
2023/02/01 08:51:20;;;;;;;;;;;7.00;99.90;;;;;;5008437;28;19924;-76
2023/02/01 08:53:46;;;;;;;;;;;7.10;99.90;;;;;;5005379;28;20379;-75
2023/02/01 08:56:13;;;;;;;;;;;7.10;99.90;;;;;;5005851;28;19920;-77
2023/02/01 08:58:38;;;;;;;;;;;7.10;99.90;;;;;;5008045;28;20004;-73
2023/02/01 09:01:05;;;;;;;;;;;7.10;99.90;;;;;;5015272;28;19952;-77
2023/02/01 09:03:30;;;;;;;;;;;7.10;99.90;;;;;;5007391;28;19948;-73
2023/02/01 09:06:15;;;;;;;;;;;7.10;99.90;;;;;;5015776;28;20257;-76
2023/02/01 09:08:41;;;;;;;;;;;7.20;99.90;;;;;;5008175;28;19925;-73
2023/02/01 09:11:09;;;;;;;;;;;7.20;99.90;;;;;;5014450;28;19913;-73
2023/02/01 09:13:35;;;;;;;;;;;7.30;99.90;;;;;;5008750;28;19921;-74
2023/02/01 09:16:01;;;;;;;;;;;7.30;99.90;;;;;;5005163;28;19909;-75
2023/02/01 09:18:26;;;;;;;;;;;7.30;99.90;;;;;;5009619;28;19916;-72
2023/02/01 09:20:52;;;;;;;;;;;7.40;99.90;;;;;;5008967;28;19987;-74
2023/02/01 09:23:17;;;;;;;;;;;7.40;99.90;;;;;;5005370;28;19925;-75
2023/02/01 09:25:43;;;;;;;;;;;7.40;99.90;;;;;;5013456;28;19913;-74
2023/02/01 09:28:09;;;;;;;;;;;7.50;99.90;;;;;;5007024;28;19910;-74
2023/02/01 09:30:35;;;;;;;;;;;7.50;99.90;;;;;;5009736;28;20279;-73
2023/02/01 09:33:00;;;;;;;;;;;7.60;99.90;;;;;;5011794;28;19909;-75
2023/02/01 09:35:26;;;;;;;;;;;7.60;99.90;;;;;;5024896;28;19916;-76
2023/02/01 09:37:52;;;;;;;;;;;7.70;99.90;;;;;;5000198;28;19913;-77
2023/02/01 09:40:18;;;;;;;;;;;7.70;99.90;;;;;;5008026;28;19917;-77
2023/02/01 09:42:56;;;;;;;;;;;7.70;99.90;;;;;;5007016;28;20001;-74
2023/02/01 09:45:36;;;;;;;;;;;7.90;99.90;;;;;;5014372;28;20000;-76
2023/02/01 09:48:03;;;;;;;;;;;7.80;99.90;;;;;;5006273;28;19909;-74
2023/02/01 09:50:37;;;;;;;;;;;7.90;99.90;;;;;;5007684;28;20006;-85
2023/02/01 09:53:10;;;;;;;;;;;7.90;99.90;;;;;;5022855;28;20115;-77
2023/02/01 09:55:40;;;;;;;;;;;7.90;99.90;;;;;;5009359;28;19917;-78
2023/02/01 09:58:08;;;;;;;;;;;7.90;99.90;;;;;;5014161;28;19917;-76
2023/02/01 10:00:35;;;;;;;;;;;7.90;99.90;;;;;;5007777;28;19964;-77
2023/02/01 10:03:01;;;;;;;;;;;7.90;99.90;;;;;;5015072;28;19916;-75
2023/02/01 10:05:46;;;;;;;;;;;7.90;99.90;;;;;;5010388;28;19909;-74
2023/02/01 10:08:19;;;;;;;;;;;7.80;99.90;;;;;;5015326;28;19924;-76
2023/02/01 10:10:47;;;;;;;;;;;7.90;99.90;;;;;;5011430;28;19917;-74
2023/02/01 10:13:22;;;;;;;;;;;7.90;99.90;;;;;;5010720;28;19959;-76
2023/02/01 10:15:59;;;;;;;;;;;7.90;99.90;;;;;;5018099;28;19913;-74
2023/02/01 10:18:32;;;;;;;;;;;7.90;99.90;;;;;;5017956;28;19910;-75
2023/02/01 10:21:16;;;;;;;;;;;7.90;99.90;;;;;;4998279;28;20397;-73
2023/02/01 10:24:00;;;;;;;;;;;7.80;99.90;;;;;;5001363;28;19988;-73
2023/02/01 10:26:28;;;;;;;;;;;7.90;99.90;;;;;;5009272;28;19920;-74
2023/02/01 10:28:59;;;;;;;;;;;7.80;99.90;;;;;;5012848;28;19996;-76
2023/02/01 10:31:26;;;;;;;;;;;7.80;99.90;;;;;;5005173;28;19924;-73
2023/02/01 10:33:59;;;;;;;;;;;7.80;99.90;;;;;;5015290;28;19913;-73
2023/02/01 10:36:30;;;;;;;;;;;7.80;99.90;;;;;;5012178;28;19909;-75
2023/02/01 10:38:57;;;;;;;;;;;7.90;99.90;;;;;;5031738;28;19912;-75
2023/02/01 10:41:23;;;;;;;;;;;7.90;99.90;;;;;;5010365;28;19910;-76
2023/02/01 10:43:51;;;;;;;;;;;7.90;99.90;;;;;;5014734;28;19927;-76
2023/02/01 10:46:17;;;;;;;;;;;7.90;99.90;;;;;;5009390;28;19915;-74
2023/02/01 10:48:43;;;;;;;;;;;7.90;99.90;;;;;;5020592;28;20004;-76
2023/02/01 10:51:16;;;;;;;;;;;7.90;99.90;;;;;;5015559;28;19913;-73
2023/02/01 10:53:42;;;;;;;;;;;7.90;99.90;;;;;;5015646;28;19910;-73
2023/02/01 10:56:09;;;;;;;;;;;7.90;99.90;;;;;;5015444;28;19940;-75
2023/02/01 10:58:36;;;;;;;;;;;7.90;99.90;;;;;;5012428;28;19909;-79
2023/02/01 11:01:03;;;;;;;;;;;7.80;99.90;;;;;;5022624;28;19909;-72
2023/02/01 11:03:52;;;;;;;;;;;7.90;99.90;;;;;;5009833;28;19916;-76
2023/02/01 11:06:29;;;;;;;;;;;7.90;99.90;;;;;;5016474;28;19921;-77
2023/02/01 11:08:56;;;;;;;;;;;7.90;99.90;;;;;;5010722;28;19918;-74
2023/02/01 11:11:22;;;;;;;;;;;8.00;99.90;;;;;;5011321;28;19913;-73
2023/02/01 11:13:55;;;;;;;;;;;8.00;99.90;;;;;;5008491;28;20401;-74
2023/02/01 11:16:20;;;;;;;;;;;8.00;99.90;;;;;;5002720;28;19910;-76
2023/02/01 11:18:52;;;;;;;;;;;8.10;99.90;;;;;;5016644;28;19917;-75
2023/02/01 11:21:17;;;;;;;;;;;8.10;99.90;;;;;;5006338;28;19917;-72
2023/02/01 11:23:44;;;;;;;;;;;8.00;99.90;;;;;;5009622;28;19910;-78
2023/02/01 11:26:12;;;;;;;;;;;8.00;99.90;;;;;;5015241;28;20590;-73
2023/02/01 11:28:39;;;;;;;;;;;8.00;99.90;;;;;;4995862;28;19940;-75
2023/02/01 11:31:09;;;;;;;;;;;8.10;99.90;;;;;;5016875;28;20052;-74
2023/02/01 11:33:44;;;;;;;;;;;8.10;99.90;;;;;;5015243;28;19913;-75
2023/02/01 11:36:12;;;;;;;;;;;8.20;99.90;;;;;;5009341;28;19909;-77
2023/02/01 11:38:37;;;;;;;;;;;8.20;99.90;;;;;;5013969;28;19914;-76
2023/02/01 11:41:22;;;;;;;;;;;8.20;99.90;;;;;;5007811;28;19932;-77
2023/02/01 11:43:58;;;;;;;;;;;8.20;99.90;;;;;;5031840;28;20365;-74
2023/02/01 11:46:28;;;;;;;;;;;8.20;99.90;;;;;;5003666;28;19910;-75
2023/02/01 11:48:53;;;;;;;;;;;8.20;99.90;;;;;;4997877;28;20454;-77
2023/02/01 11:51:22;;;;;;;;;;;8.30;99.90;;;;;;5011064;28;20012;-80
2023/02/01 11:54:04;;;;;;;;;;;8.20;99.90;;;;;;5027486;28;19909;-77
2023/02/01 11:56:35;;;;;;;;;;;8.20;99.90;;;;;;5005422;28;19918;-78
2023/02/01 11:59:20;;;;;;;;;;;8.20;99.90;;;;;;5014908;28;20528;-74
2023/02/01 12:01:46;;;;;;;;;;;8.20;99.90;;;;;;5016790;28;19913;-77
2023/02/01 12:04:15;;;;;;;;;;;8.20;99.90;;;;;;5025833;28;19917;-74
2023/02/01 12:06:59;;;;;;;;;;;8.20;99.90;;;;;;5012865;28;19917;-80
2023/02/01 12:09:27;;;;;;;;;;;8.20;99.90;;;;;;5007651;28;19910;-80
2023/02/01 12:12:12;;;;;;;;;;;8.20;99.90;;;;;;5016794;28;20283;-77
2023/02/01 12:14:56;;;;;;;;;;;8.30;99.90;;;;;;5017421;28;19909;-76
2023/02/01 12:17:21;;;;;;;;;;;8.30;99.90;;;;;;5020262;28;19957;-73
2023/02/01 12:19:50;;;;;;;;;;;8.30;99.90;;;;;;5018465;28;20051;-73
2023/02/01 12:22:34;;;;;;;;;;;8.40;99.90;;;;;;5017007;28;20286;-77
2023/02/01 12:25:01;;;;;;;;;;;8.30;99.90;;;;;;5008764;28;19909;-75
2023/02/01 12:27:35;;;;;;;;;;;8.40;99.90;;;;;;5017878;28;19916;-77
2023/02/01 12:30:10;;;;;;;;;;;8.40;99.90;;;;;;5015183;28;20305;-75
2023/02/01 12:32:38;;;;;;;;;;;8.40;99.90;;;;;;5016442;28;19964;-74
2023/02/01 12:35:18;;;;;;;;;;;8.40;99.90;;;;;;5008504;28;20421;-76
2023/02/01 12:38:10;;;;;;;;;;;8.40;99.90;;;;;;5016467;28;20043;-74
2023/02/01 12:40:54;;;;;;;;;;;8.40;99.90;;;;;;5014744;28;19983;-74
2023/02/01 12:43:39;;;;;;;;;;;8.50;99.90;;;;;;5012454;28;19947;-75
2023/02/01 12:46:09;;;;;;;;;;;8.70;99.90;;;;;;5007540;28;20390;-75
2023/02/01 12:48:42;;;;;;;;;;;8.90;99.90;;;;;;5019956;28;19940;-75
2023/02/01 12:51:17;;;;;;;;;;;8.90;99.90;;;;;;5033050;28;19920;-76
2023/02/01 12:53:46;;;;;;;;;;;9.10;99.90;;;;;;5020814;28;19909;-77
2023/02/01 12:56:15;;;;;;;;;;;8.90;99.90;;;;;;5023769;28;19909;-75
2023/02/01 12:59:01;;;;;;;;;;;8.90;99.90;;;;;;5026420;28;19995;-73
2023/02/01 13:01:35;;;;;;;;;;;8.80;99.90;;;;;;5011527;28;20367;-77
2023/02/01 13:04:16;;;;;;;;;;;8.70;99.90;;;;;;5012911;28;19909;-73
2023/02/01 13:06:45;;;;;;;;;;;8.70;99.90;;;;;;5010004;28;19913;-73
2023/02/01 13:09:23;;;;;;;;;;;8.70;99.90;;;;;;5019356;28;19993;-76
2023/02/01 13:11:50;;;;;;;;;;;8.80;99.90;;;;;;5014838;28;19972;-76
2023/02/01 13:14:22;;;;;;;;;;;8.80;99.90;;;;;;5013295;28;19913;-75
2023/02/01 13:16:49;;;;;;;;;;;8.70;99.90;;;;;;5010373;28;20456;-73
2023/02/01 13:19:15;;;;;;;;;;;8.70;99.90;;;;;;5028362;28;19986;-79
2023/02/01 13:21:44;;;;;;;;;;;8.70;99.90;;;;;;5033563;28;20032;-77
2023/02/01 13:24:26;;;;;;;;;;;8.70;99.90;;;;;;5032711;28;19950;-75
2023/02/01 13:26:53;;;;;;;;;;;8.70;99.90;;;;;;5026716;28;19910;-75
2023/02/01 13:29:20;;;;;;;;;;;8.80;99.90;;;;;;5025861;28;19917;-76
2023/02/01 13:31:46;;;;;;;;;;;8.90;99.90;;;;;;5029923;28;20472;-74
2023/02/01 13:34:17;;;;;;;;;;;8.90;99.90;;;;;;5023094;28;19999;-76
2023/02/01 13:36:46;;;;;;;;;;;8.90;99.90;;;;;;5010725;28;19909;-76
2023/02/01 13:39:30;;;;;;;;;;;8.90;99.90;;;;;;5014480;28;20551;-74
2023/02/01 13:41:57;;;;;;;;;;;8.90;99.90;;;;;;5014350;28;19943;-75
2023/02/01 13:44:29;;;;;;;;;;;8.80;99.90;;;;;;5009750;28;19937;-75
2023/02/01 13:47:02;;;;;;;;;;;8.80;99.90;;;;;;5010220;28;19917;-77
2023/02/01 13:49:30;;;;;;;;;;;8.70;99.90;;;;;;5003407;28;19910;-73
2023/02/01 13:51:57;;;;;;;;;;;8.70;99.90;;;;;;5025918;28;19940;-77
2023/02/01 13:54:40;;;;;;;;;;;8.70;99.90;;;;;;5016817;28;20632;-76
2023/02/01 13:57:26;;;;;;;;;;;8.70;99.90;;;;;;5011198;28;19913;-76
2023/02/01 13:59:52;;;;;;;;;;;8.60;99.90;;;;;;5011858;28;20338;-78
2023/02/01 14:02:50;;;;;;;;;;;8.60;99.90;;;;;;5016336;28;19910;-76
2023/02/01 14:05:21;;;;;;;;;;;8.60;99.90;;;;;;4987264;28;19936;-77
2023/02/01 14:08:05;;;;;;;;;;;8.60;99.90;;;;;;5006917;28;19952;-73
2023/02/01 14:10:52;;;;;;;;;;;8.60;99.90;;;;;;5008637;28;20052;-72
2023/02/01 14:13:27;;;;;;;;;;;8.60;99.90;;;;;;5016970;28;19933;-73
2023/02/01 14:16:01;;;;;;;;;;;8.60;99.90;;;;;;5013763;28;19909;-73
2023/02/01 14:18:33;;;;;;;;;;;8.60;99.90;;;;;;5007028;28;19909;-75
2023/02/01 14:21:10;;;;;;;;;;;8.60;99.90;;;;;;5008023;28;19913;-74
2023/02/01 14:23:39;;;;;;;;;;;8.60;99.90;;;;;;5003609;28;19960;-75
2023/02/01 14:26:07;;;;;;;;;;;8.60;99.90;;;;;;5004765;28;21263;-75
2023/02/01 14:28:34;;;;;;;;;;;8.60;99.90;;;;;;5013480;28;19910;-75
2023/02/01 14:31:12;;;;;;;;;;;8.60;99.90;;;;;;5011331;28;19955;-74
2023/02/01 14:33:41;;;;;;;;;;;8.60;99.90;;;;;;5004619;28;19909;-73
2023/02/01 14:36:11;;;;;;;;;;;8.60;99.90;;;;;;5008495;28;19996;-74
2023/02/01 14:38:38;;;;;;;;;;;8.60;99.90;;;;;;5008483;28;19910;-75
2023/02/01 14:41:11;;;;;;;;;;;8.60;99.90;;;;;;5002960;28;19917;-72
2023/02/01 14:44:02;;;;;;;;;;;8.60;99.90;;;;;;5010896;28;19976;-75
2023/02/01 14:46:46;;;;;;;;;;;8.60;99.90;;;;;;4991276;28;19909;-76
2023/02/01 14:49:12;;;;;;;;;;;8.60;99.90;;;;;;5014896;28;19917;-74
2023/02/01 14:51:38;;;;;;;;;;;8.60;99.90;;;;;;5005422;28;20378;-76
2023/02/01 14:54:04;;;;;;;;;;;8.60;99.90;;;;;;5005151;28;19996;-79
2023/02/01 14:56:31;;;;;;;;;;;8.60;99.90;;;;;;5009810;28;19964;-73
2023/02/01 14:59:12;;;;;;;;;;;8.60;99.90;;;;;;5010979;28;20004;-74
2023/02/01 15:01:38;;;;;;;;;;;8.60;99.90;;;;;;5014532;28;19913;-74
2023/02/01 15:04:10;;;;;;;;;;;8.60;99.90;;;;;;5010113;28;19913;-72
2023/02/01 15:06:35;;;;;;;;;;;8.50;99.90;;;;;;5011994;28;19994;-75